Time;durP1;ratioP1;P1;durP2;ratioP2;P2;SDS_P1;SDS_P2;PMS_P1;PMS_P2;Temp;Humidity;BMP_temperature;BMP_pressure;BME280_temperature;BME280_humidity;BME280_pressure;Samples;Min_cycle;Max_cycle;Signal;HPM_P1;HPM_P2
2023/10/26 00:02:26;;;;;;;4.40;1.90;;;10.50;99.90;;;11.04;100.00;96214.75;5028309;28;20573;-80
2023/10/26 00:04:57;;;;;;;2.23;1.93;;;10.50;99.90;;;11.07;100.00;96222.16;5027157;28;20473;-79
2023/10/26 00:07:26;;;;;;;4.53;1.80;;;10.50;99.90;;;11.07;100.00;96214.31;5028213;28;20464;-79
2023/10/26 00:09:56;;;;;;;3.00;1.70;;;10.60;99.90;;;11.10;100.00;96216.44;5023738;28;20508;-80
2023/10/26 00:12:26;;;;;;;2.10;1.60;;;10.60;99.90;;;11.07;100.00;96214.31;5024696;28;21146;-80
2023/10/26 00:14:55;;;;;;;1.73;1.60;;;10.60;99.90;;;11.05;100.00;96216.34;5028660;28;20458;-80
2023/10/26 00:17:26;;;;;;;2.37;2.17;;;10.50;99.90;;;11.10;100.00;96219.06;5026222;28;20551;-80
2023/10/26 00:19:57;;;;;;;2.77;2.30;;;10.50;99.90;;;11.02;100.00;96220.22;5027434;28;20477;-80
2023/10/26 00:22:27;;;;;;;3.57;2.03;;;10.60;99.90;;;11.04;100.00;96214.75;5025025;28;20473;-79
2023/10/26 00:24:56;;;;;;;2.60;2.33;;;10.50;99.90;;;11.00;100.00;96221.50;5025697;28;20864;-79
2023/10/26 00:27:27;;;;;;;1.90;1.60;;;10.60;99.90;;;11.00;100.00;96224.13;5026189;28;20489;-80
2023/10/26 00:29:57;;;;;;;2.63;1.77;;;10.60;99.90;;;11.03;100.00;96223.66;5026268;28;21228;-80
2023/10/26 00:32:27;;;;;;;2.77;2.03;;;10.60;99.90;;;11.05;100.00;96224.19;5027132;28;20506;-80
2023/10/26 00:34:57;;;;;;;3.20;1.80;;;10.50;99.90;;;11.07;100.00;96238.63;5027986;28;20457;-80
2023/10/26 00:37:28;;;;;;;4.83;1.60;;;10.60;99.90;;;11.08;100.00;96228.94;5026425;28;20964;-80
2023/10/26 00:39:58;;;;;;;1.60;1.50;;;10.60;99.90;;;11.10;100.00;96226.91;5026420;28;20473;-79
2023/10/26 00:42:30;;;;;;;2.20;2.00;;;10.60;99.90;;;11.07;100.00;96233.38;5023788;28;20485;-79
2023/10/26 00:45:01;;;;;;;3.47;1.67;;;10.60;99.90;;;11.05;100.00;96235.44;5028005;28;20458;-79
2023/10/26 00:47:31;;;;;;;2.10;1.90;;;10.60;99.90;;;11.07;100.00;96237.84;5026559;28;20464;-80
2023/10/26 00:50:01;;;;;;;1.73;1.63;;;10.50;99.90;;;11.08;100.00;96242.03;5028379;28;21051;-79
2023/10/26 00:52:31;;;;;;;2.70;2.10;;;10.50;99.90;;;11.10;100.00;96240.00;5028901;28;20461;-80
2023/10/26 00:55:02;;;;;;;2.60;1.63;;;10.50;99.90;;;11.11;100.00;96249.41;5025331;28;20493;-79
2023/10/26 00:57:33;;;;;;;15.00;2.20;;;10.50;99.90;;;11.12;100.00;96245.78;5028415;28;20466;-80
2023/10/26 01:00:07;;;;;;;3.30;2.33;;;10.60;99.90;;;11.10;100.00;96253.06;5027836;28;21018;-79
2023/10/26 01:02:37;;;;;;;3.23;2.70;;;10.60;99.90;;;11.08;100.00;96255.09;5025957;28;20458;-79
2023/10/26 01:05:07;;;;;;;9.17;2.80;;;10.60;99.90;;;11.04;100.00;96254.78;5029565;28;20462;-80
2023/10/26 01:07:39;;;;;;;2.07;1.87;;;10.60;99.90;;;11.06;100.00;96257.19;5029859;28;20489;-79
2023/10/26 01:10:12;;;;;;;3.23;1.97;;;10.60;99.90;;;11.08;100.00;96253.28;5027756;28;20543;-80
2023/10/26 01:12:44;;;;;;;2.03;1.83;;;10.50;99.90;;;11.08;100.00;96265.56;5028944;28;20461;-80
2023/10/26 01:15:16;;;;;;;4.83;1.70;;;10.60;99.90;;;11.09;100.00;96269.78;5030009;28;20473;-80
2023/10/26 01:17:46;;;;;;;1.80;1.60;;;10.50;99.90;;;11.07;100.00;96269.22;5029100;28;20457;-79
2023/10/26 01:20:19;;;;;;;2.83;1.70;;;10.40;99.90;;;11.09;100.00;96267.16;5028702;28;20562;-80
2023/10/26 01:22:51;;;;;;;1.50;1.40;;;10.40;99.90;;;11.07;100.00;96269.22;5027672;28;20476;-79
2023/10/26 01:25:20;;;;;;;1.60;1.40;;;10.40;99.90;;;11.05;100.00;96281.72;5031729;28;20878;-79
2023/10/26 01:27:50;;;;;;;2.00;1.77;;;10.50;99.90;;;11.03;100.00;96281.19;5031098;28;20461;-80
2023/10/26 01:30:22;;;;;;;1.60;1.30;;;10.50;99.90;;;11.00;100.00;96277.19;5029723;28;20497;-80
2023/10/26 01:32:52;;;;;;;1.90;1.70;;;10.40;99.90;;;10.98;100.00;96270.63;5030300;28;20535;-79
2023/10/26 01:35:23;;;;;;;4.40;1.67;;;10.40;99.90;;;11.02;100.00;96276.97;5029659;28;20968;-79
2023/10/26 01:37:54;;;;;;;2.50;1.60;;;10.40;99.90;;;11.02;100.00;96266.50;5028981;28;20984;-80
2023/10/26 01:40:25;;;;;;;1.50;1.23;;;10.40;99.90;;;10.96;100.00;96268.25;5030776;28;20512;-79
2023/10/26 01:42:56;;;;;;;2.17;1.40;;;10.40;99.90;;;10.90;100.00;96274.38;5028766;28;20503;-79
2023/10/26 01:45:26;;;;;;;3.03;1.30;;;10.40;99.90;;;10.92;100.00;96282.81;5028745;28;20597;-80
2023/10/26 01:47:56;;;;;;;2.80;1.23;;;10.30;99.90;;;10.89;100.00;96266.78;5027287;28;20459;-80
2023/10/26 01:50:25;;;;;;;1.53;1.43;;;10.40;99.90;;;10.85;100.00;96268.28;5029137;28;20567;-79
2023/10/26 01:52:57;;;;;;;2.13;1.77;;;10.30;99.90;;;10.87;100.00;96280.09;5030010;28;20473;-80
2023/10/26 01:55:27;;;;;;;2.93;1.67;;;10.30;99.90;;;10.75;100.00;96276.72;5028426;28;20462;-80
2023/10/26 01:57:57;;;;;;;1.20;1.10;;;10.20;99.90;;;10.74;100.00;96274.31;5028238;28;20545;-80
2023/10/26 02:00:28;;;;;;;2.10;1.63;;;10.20;99.90;;;10.77;100.00;96281.72;5026836;28;20485;-80
2023/10/26 02:02:57;;;;;;;3.00;1.40;;;10.10;99.90;;;10.77;100.00;96294.78;5029426;28;20474;-80
2023/10/26 02:05:29;;;;;;;2.07;1.63;;;10.00;99.90;;;10.74;100.00;96295.25;5026680;28;20466;-79
2023/10/26 02:08:00;;;;;;;1.40;1.30;;;10.00;99.90;;;10.72;100.00;96290.25;5026745;28;20459;-80
2023/10/26 02:10:30;;;;;;;1.80;1.70;;;10.00;99.90;;;10.64;100.00;96292.44;5030660;28;20494;-80
2023/10/26 02:13:01;;;;;;;1.73;1.30;;;10.10;99.90;;;10.61;100.00;96285.84;5030655;28;21249;-79
2023/10/26 02:15:30;;;;;;;2.40;1.50;;;10.10;99.90;;;10.60;100.00;96290.28;5028197;28;20953;-79
2023/10/26 02:18:00;;;;;;;1.67;1.40;;;10.00;99.90;;;10.59;100.00;96280.03;5027700;28;20465;-80
2023/10/26 02:20:30;;;;;;;1.53;1.43;;;10.00;99.90;;;10.62;100.00;96278.81;5027855;28;20566;-80
2023/10/26 02:23:04;;;;;;;1.30;1.10;;;10.00;99.90;;;10.55;100.00;96282.31;5028441;28;20502;-80
2023/10/26 02:25:34;;;;;;;1.07;0.97;;;10.00;99.90;;;10.52;100.00;96279.38;5028564;28;20462;-80
2023/10/26 02:28:04;;;;;;;5.70;1.17;;;9.90;99.90;;;10.50;100.00;96284.03;5030755;28;20487;-79
2023/10/26 02:30:35;;;;;;;2.00;1.30;;;9.90;99.90;;;10.47;100.00;96285.31;5029545;28;21039;-80
2023/10/26 02:33:04;;;;;;;1.43;1.27;;;9.90;99.90;;;10.49;100.00;96275.41;5029386;28;20880;-80
2023/10/26 02:35:34;;;;;;;1.87;1.07;;;9.80;99.90;;;10.49;100.00;96274.59;5027725;28;20528;-80
2023/10/26 02:38:05;;;;;;;1.20;1.10;;;9.80;99.90;;;10.47;100.00;96276.66;5030793;28;20957;-80
2023/10/26 02:40:38;;;;;;;1.97;1.20;;;9.80;99.90;;;10.46;100.00;96278.47;5026669;28;20454;-80
2023/10/26 02:43:09;;;;;;;1.87;1.23;;;9.60;99.90;;;10.42;100.00;96279.16;5027582;28;20829;-79
2023/10/26 02:45:39;;;;;;;6.40;1.37;;;9.70;99.90;;;10.38;100.00;96273.59;5027482;28;20455;-80
2023/10/26 02:48:09;;;;;;;1.20;1.10;;;9.60;99.90;;;10.37;100.00;96274.63;5026768;28;21032;-80
2023/10/26 02:50:40;;;;;;;1.10;1.00;;;9.50;99.90;;;10.34;100.00;96284.75;5029864;28;20498;-79
2023/10/26 02:53:10;;;;;;;3.33;1.20;;;9.50;99.90;;;10.31;100.00;96280.00;5027628;28;20462;-80
2023/10/26 02:55:41;;;;;;;4.50;1.20;;;9.40;99.90;;;10.28;100.00;96265.53;5028826;28;20463;-79
2023/10/26 02:58:12;;;;;;;1.20;1.10;;;9.40;99.90;;;10.30;100.00;96268.75;5027233;28;20458;-79
2023/10/26 03:00:42;;;;;;;1.40;1.30;;;9.40;99.90;;;10.19;100.00;96263.50;5029783;28;20809;-79
2023/10/26 03:03:12;;;;;;;17.43;1.27;;;9.30;99.90;;;10.10;100.00;96265.63;5028425;28;20477;-79
2023/10/26 03:05:41;;;;;;;2.20;1.20;;;9.30;99.90;;;10.01;100.00;96267.00;5028422;28;20454;-80
2023/10/26 03:08:13;;;;;;;14.07;1.80;;;9.20;99.90;;;10.03;100.00;96272.81;5026529;28;20496;-79
2023/10/26 03:10:41;;;;;;;1.60;1.20;;;9.20;99.90;;;10.01;100.00;96259.19;5026517;28;20501;-80
2023/10/26 03:13:11;;;;;;;9.87;4.43;;;9.10;99.90;;;10.03;100.00;96267.59;5026578;28;20473;-80
2023/10/26 03:15:40;;;;;;;1.70;1.37;;;9.20;99.90;;;10.01;100.00;96265.19;5024647;28;20579;-80
2023/10/26 03:18:11;;;;;;;2.23;1.27;;;9.10;99.90;;;9.96;100.00;96272.13;5024310;28;20458;-79
2023/10/26 03:20:42;;;;;;;1.30;1.20;;;9.20;99.90;;;10.01;100.00;96280.06;5023997;28;20493;-79
2023/10/26 03:23:15;;;;;;;2.20;1.20;;;9.20;99.90;;;10.04;100.00;96280.41;5023177;28;20916;-79
2023/10/26 03:25:45;;;;;;;13.97;5.57;;;9.20;99.90;;;10.04;100.00;96287.44;5026404;28;20523;-78
2023/10/26 03:28:14;;;;;;;3.53;2.23;;;9.30;99.90;;;10.06;100.00;96288.03;5022989;28;20465;-79
2023/10/26 03:30:44;;;;;;;2.07;1.20;;;9.20;99.90;;;10.07;100.00;96286.97;5024461;28;20485;-79
2023/10/26 03:33:14;;;;;;;1.77;1.27;;;9.20;99.90;;;10.08;100.00;96280.75;5028314;28;20465;-79
2023/10/26 03:35:44;;;;;;;2.40;1.80;;;9.30;99.90;;;10.09;100.00;96282.34;5028405;28;21311;-79
2023/10/26 03:38:19;;;;;;;2.07;1.47;;;9.30;99.90;;;10.15;100.00;96280.66;5030066;28;20533;-79
2023/10/26 03:40:51;;;;;;;1.90;1.40;;;9.30;99.90;;;10.17;100.00;96287.25;5026958;28;20953;-78
2023/10/26 03:43:24;;;;;;;2.03;1.60;;;9.40;99.90;;;10.22;100.00;96282.13;5027642;28;21169;-79
2023/10/26 03:45:54;;;;;;;1.33;1.23;;;9.40;99.90;;;10.23;100.00;96278.50;5026904;28;20458;-79
2023/10/26 03:48:23;;;;;;;1.50;1.30;;;9.40;99.90;;;10.23;100.00;96273.28;5025987;28;20462;-79
2023/10/26 03:50:53;;;;;;;2.83;1.57;;;9.40;99.90;;;10.21;100.00;96274.53;5022761;28;21351;-79
2023/10/26 03:53:24;;;;;;;5.83;1.50;;;9.40;99.90;;;10.20;100.00;96267.72;5025900;28;20544;-80
2023/10/26 03:55:55;;;;;;;4.10;1.70;;;9.40;99.90;;;10.13;100.00;96267.81;5025719;28;20693;-80
2023/10/26 03:58:26;;;;;;;5.97;2.27;;;9.40;99.90;;;10.10;100.00;96269.03;5026776;28;20541;-80
2023/10/26 04:00:56;;;;;;;2.40;1.77;;;9.30;99.90;;;10.05;100.00;96270.75;5025366;28;20495;-79
2023/10/26 04:03:26;;;;;;;1.73;1.60;;;9.30;99.90;;;10.06;100.00;96274.97;5025927;28;20469;-77
2023/10/26 04:05:56;;;;;;;1.87;1.23;;;9.30;99.90;;;10.06;100.00;96274.97;5025328;28;20514;-79
2023/10/26 04:08:27;;;;;;;3.13;1.20;;;9.30;99.90;;;10.08;100.00;96278.94;5027320;28;20449;-79
2023/10/26 04:10:57;;;;;;;1.77;1.40;;;9.20;99.90;;;10.07;100.00;96281.75;5021529;28;21141;-79
2023/10/26 04:13:30;;;;;;;2.00;1.50;;;9.20;99.90;;;10.00;100.00;96281.88;5023477;28;20544;-79
2023/10/26 04:16:00;;;;;;;1.90;1.40;;;9.20;99.90;;;9.97;100.00;96273.69;5023111;28;20482;-80
2023/10/26 04:18:31;;;;;;;1.30;1.20;;;9.20;99.90;;;9.93;100.00;96270.75;5026179;28;20457;-80
2023/10/26 04:21:00;;;;;;;4.90;1.30;;;9.10;99.90;;;9.90;100.00;96273.00;5024012;28;20565;-79
2023/10/26 04:23:31;;;;;;;1.50;1.40;;;9.00;99.90;;;9.89;100.00;96266.22;5024059;28;20471;-79
2023/10/26 04:26:00;;;;;;;14.20;6.83;;;9.00;99.90;;;9.84;100.00;96269.50;5024630;28;20480;-77
2023/10/26 04:28:30;;;;;;;2.80;1.50;;;9.00;99.90;;;9.83;100.00;96267.09;5021851;28;20555;-79
2023/10/26 04:31:07;;;;;;;2.40;1.60;;;8.90;99.90;;;9.80;100.00;96259.72;5019574;28;20534;-78
2023/10/26 04:33:36;;;;;;;3.50;1.50;;;8.90;99.90;;;9.75;100.00;96262.25;5024962;28;20465;-79
2023/10/26 04:36:09;;;;;;;2.70;1.40;;;8.80;99.90;;;9.70;100.00;96262.91;5024363;28;20501;-79
2023/10/26 04:38:41;;;;;;;3.87;1.80;;;8.70;99.90;;;9.67;100.00;96273.78;5024633;28;20463;-80
2023/10/26 04:41:12;;;;;;;2.50;1.83;;;8.70;99.90;;;9.60;100.00;96273.91;5032066;28;20820;-80
2023/10/26 04:43:43;;;;;;;2.87;1.93;;;8.70;99.90;;;9.50;100.00;96273.66;5032622;28;20488;-80
2023/10/26 04:46:12;;;;;;;3.60;2.20;;;8.60;99.90;;;9.46;100.00;96266.50;5032518;28;20494;-80
2023/10/26 04:48:43;;;;;;;5.73;2.13;;;8.50;99.90;;;9.41;100.00;96272.38;5032160;28;20466;-80
2023/10/26 04:51:12;;;;;;;5.70;1.77;;;8.50;99.90;;;9.30;100.00;96278.34;5030444;28;20573;-80
2023/10/26 04:53:45;;;;;;;11.40;1.70;;;8.40;99.90;;;9.26;100.00;96261.56;5033232;28;20520;-80
2023/10/26 04:56:15;;;;;;;2.23;1.87;;;8.30;99.90;;;9.22;100.00;96265.63;5037209;28;20489;-81
2023/10/26 04:58:47;;;;;;;2.37;1.43;;;8.20;99.90;;;9.12;100.00;96249.75;5033114;28;20461;-81
2023/10/26 05:01:17;;;;;;;1.90;1.43;;;8.10;99.90;;;9.06;100.00;96251.41;5031900;28;20481;-80
2023/10/26 05:03:46;;;;;;;2.47;2.03;;;8.10;99.90;;;9.01;100.00;96253.09;5030582;28;20561;-80
2023/10/26 05:06:17;;;;;;;1.97;1.53;;;8.00;99.90;;;8.99;100.00;96255.09;5032411;28;20512;-80
2023/10/26 05:08:50;;;;;;;2.43;1.57;;;8.00;99.90;;;9.01;100.00;96247.88;5033077;28;20877;-80
2023/10/26 05:11:21;;;;;;;1.90;1.50;;;8.00;99.90;;;8.86;100.00;96252.69;5031256;28;20489;-80
2023/10/26 05:13:52;;;;;;;2.17;1.57;;;8.00;99.90;;;8.90;100.00;96257.25;5033162;28;20466;-80
2023/10/26 05:16:22;;;;;;;1.93;1.40;;;8.00;99.90;;;8.90;100.00;96261.66;5030274;28;20466;-80
2023/10/26 05:18:52;;;;;;;5.70;1.97;;;8.00;99.90;;;8.87;100.00;96262.09;5032374;28;20488;-80
2023/10/26 05:21:21;;;;;;;3.73;1.53;;;8.00;99.90;;;8.85;100.00;96269.34;5032501;28;20474;-80
2023/10/26 05:23:53;;;;;;;4.47;1.33;;;7.90;99.90;;;8.81;100.00;96263.78;5031842;28;20527;-80
2023/10/26 05:26:24;;;;;;;2.00;1.80;;;7.80;99.90;;;8.77;100.00;96257.41;5031231;28;20557;-80
2023/10/26 05:28:54;;;;;;;1.50;1.40;;;7.80;99.90;;;8.74;100.00;96252.66;5031307;28;20462;-80
2023/10/26 05:31:25;;;;;;;2.77;1.70;;;7.80;99.90;;;8.71;100.00;96258.28;5030629;28;20494;-80
2023/10/26 05:33:54;;;;;;;1.87;1.60;;;7.70;99.90;;;8.67;100.00;96256.34;5034419;28;20454;-80
2023/10/26 05:36:24;;;;;;;2.70;1.60;;;7.70;99.90;;;8.70;100.00;96245.47;5032351;28;20508;-80
2023/10/26 05:38:56;;;;;;;9.30;2.17;;;7.80;99.90;;;8.69;100.00;96241.28;5032239;28;20467;-81
2023/10/26 05:41:27;;;;;;;7.13;1.57;;;7.70;99.90;;;8.59;100.00;96245.22;5031360;28;20480;-81
2023/10/26 05:43:59;;;;;;;6.30;1.60;;;7.70;99.90;;;8.62;100.00;96243.97;5032482;28;20465;-80
2023/10/26 05:46:29;;;;;;;2.33;1.53;;;7.80;99.90;;;8.58;100.00;96245.41;5030267;28;20540;-80
2023/10/26 05:49:00;;;;;;;3.20;2.03;;;7.60;99.90;;;8.58;100.00;96254.03;5030629;28;20861;-80
2023/10/26 05:51:30;;;;;;;2.10;1.70;;;7.60;99.90;;;8.47;100.00;96251.34;5030048;28;20485;-80
2023/10/26 05:54:02;;;;;;;2.20;1.70;;;7.50;99.90;;;8.44;100.00;96251.78;5028341;28;20953;-81
2023/10/26 05:56:33;;;;;;;2.40;1.60;;;7.40;99.90;;;8.37;100.00;96257.06;5029507;28;20484;-81
2023/10/26 05:59:03;;;;;;;2.20;1.87;;;7.50;99.90;;;8.31;100.00;96247.53;5030096;28;20465;-81
2023/10/26 06:01:33;;;;;;;1.83;1.67;;;7.50;99.90;;;8.29;100.00;96246.16;5030270;28;20995;-80
2023/10/26 06:04:03;;;;;;;3.00;2.07;;;7.30;99.90;;;8.31;100.00;96252.72;5030853;28;20470;-81
2023/10/26 06:06:34;;;;;;;2.03;1.57;;;7.40;99.90;;;8.24;100.00;96251.97;5031090;28;20466;-80
2023/10/26 06:09:07;;;;;;;2.33;2.13;;;7.30;99.90;;;8.28;100.00;96255.78;5031113;28;20982;-80
2023/10/26 06:11:38;;;;;;;2.53;2.00;;;7.30;99.90;;;8.27;100.00;96251.53;5031377;28;20580;-80
2023/10/26 06:14:10;;;;;;;5.37;2.13;;;7.30;99.90;;;8.22;100.00;96248.81;5030699;28;20467;-81
2023/10/26 06:16:39;;;;;;;1.60;1.50;;;7.30;99.90;;;8.21;100.00;96241.19;5028986;28;20548;-81
2023/10/26 06:19:10;;;;;;;2.20;2.00;;;7.40;99.90;;;8.15;100.00;96242.06;5031136;28;20486;-81
2023/10/26 06:21:40;;;;;;;1.80;1.70;;;7.30;99.90;;;8.11;100.00;96241.72;5030178;28;20988;-80
2023/10/26 06:24:13;;;;;;;4.53;1.93;;;7.20;99.90;;;8.11;100.00;96236.50;5029769;28;20988;-81
2023/10/26 06:26:44;;;;;;;2.90;1.90;;;7.10;99.90;;;8.11;100.00;96231.28;5030979;28;21180;-81
2023/10/26 06:29:16;;;;;;;2.53;1.97;;;7.10;99.90;;;8.06;100.00;96238.94;5030332;28;20875;-80
2023/10/26 06:31:48;;;;;;;5.63;2.13;;;7.10;99.90;;;8.06;100.00;96238.94;5029988;28;20501;-81
2023/10/26 06:34:18;;;;;;;2.40;2.07;;;7.10;99.90;;;8.09;100.00;96236.72;5032933;28;20454;-80
2023/10/26 06:36:49;;;;;;;3.70;2.30;;;7.10;99.90;;;8.11;100.00;96246.91;5029128;28;20466;-81
2023/10/26 06:39:20;;;;;;;4.90;2.37;;;7.10;99.90;;;8.13;100.00;96254.50;5031527;28;20478;-81
2023/10/26 06:41:49;;;;;;;3.10;2.20;;;7.10;99.90;;;8.18;100.00;96241.63;5029839;28;20497;-80
2023/10/26 06:44:21;;;;;;;1.93;1.70;;;7.20;99.90;;;8.19;100.00;96246.63;5028391;28;21062;-81
2023/10/26 06:46:50;;;;;;;4.63;2.37;;;7.20;99.90;;;8.24;100.00;96238.97;5028870;28;20465;-80
2023/10/26 06:49:20;;;;;;;2.97;2.40;;;7.20;99.90;;;8.20;100.00;96252.63;5031194;28;20462;-81
2023/10/26 06:51:59;;;;;;;3.07;2.60;;;7.20;99.90;;;8.24;100.00;96251.97;5030375;28;20489;-80
2023/10/26 06:54:31;;;;;;;5.40;2.60;;;7.30;99.90;;;8.24;100.00;96246.78;5030192;28;20971;-80
2023/10/26 06:57:04;;;;;;;4.83;2.80;;;7.30;99.90;;;8.27;100.00;96246.34;5029242;28;20836;-80
2023/10/26 06:59:33;;;;;;;10.10;3.00;;;7.30;99.90;;;8.33;100.00;96247.31;5028556;28;20547;-80
2023/10/26 07:02:03;;;;;;;4.27;2.77;;;7.40;99.90;;;8.38;100.00;96250.06;5030989;28;20842;-80
2023/10/26 07:04:39;;;;;;;6.03;2.47;;;7.40;99.90;;;8.40;100.00;96243.59;5030994;28;20500;-80
2023/10/26 07:07:11;;;;;;;5.10;2.70;;;7.50;99.90;;;8.44;100.00;96230.94;5031624;28;20902;-81
2023/10/26 07:09:42;;;;;;;9.13;3.17;;;7.50;99.90;;;8.46;100.00;96232.34;5031358;28;20463;-81
2023/10/26 07:12:12;;;;;;;4.03;2.80;;;7.60;99.90;;;8.48;100.00;96230.31;5028633;28;20489;-80
2023/10/26 07:14:43;;;;;;;2.57;2.37;;;7.60;99.90;;;8.51;100.00;96223.84;5030132;28;20532;-80
2023/10/26 07:17:13;;;;;;;4.13;2.80;;;7.70;99.90;;;8.55;100.00;96225.81;5028183;28;20510;-80
2023/10/26 07:19:43;;;;;;;5.07;2.97;;;7.60;99.90;;;8.56;100.00;96219.59;5031291;28;20490;-81
2023/10/26 07:22:14;;;;;;;3.17;2.50;;;7.70;99.90;;;8.62;100.00;96212.69;5030199;28;20861;-80
2023/10/26 07:24:47;;;;;;;5.03;3.27;;;7.80;99.90;;;8.69;100.00;96210.81;5030577;28;20486;-81
2023/10/26 07:27:17;;;;;;;3.37;2.70;;;7.90;99.90;;;8.72;100.00;96210.38;5031679;28;20458;-81
2023/10/26 07:29:47;;;;;;;7.07;3.47;;;7.90;99.90;;;8.72;100.00;96212.97;5031935;28;20520;-80
2023/10/26 07:32:17;;;;;;;15.70;4.10;;;7.90;99.90;;;8.78;100.00;96211.31;5033240;28;20490;-80
2023/10/26 07:34:46;;;;;;;4.83;3.27;;;7.90;99.90;;;8.79;100.00;96199.84;5033330;28;20567;-80
2023/10/26 07:37:16;;;;;;;5.63;2.77;;;7.90;99.90;;;8.83;100.00;96203.59;5028399;28;20470;-81
2023/10/26 07:39:48;;;;;;;5.33;3.50;;;8.00;99.90;;;8.86;100.00;96208.38;5028445;28;20512;-80
2023/10/26 07:42:17;;;;;;;5.87;3.43;;;8.00;99.90;;;8.89;100.00;96207.94;5029637;28;20552;-80
2023/10/26 07:44:48;;;;;;;6.03;3.47;;;8.10;99.90;;;8.94;100.00;96205.47;5029192;28;20532;-80
2023/10/26 07:47:18;;;;;;;6.00;3.80;;;8.10;99.90;;;8.97;100.00;96218.06;5030107;28;20458;-80
2023/10/26 07:49:47;;;;;;;6.03;5.00;;;8.20;99.90;;;9.00;100.00;96207.19;5027724;28;20528;-81
2023/10/26 07:52:18;;;;;;;13.90;4.90;;;8.20;99.90;;;9.05;100.00;96202.91;5029248;28;20476;-81
2023/10/26 07:54:50;;;;;;;42.63;5.50;;;8.20;99.90;;;9.09;100.00;96200.66;5030153;28;21027;-80
2023/10/26 07:57:20;;;;;;;6.07;4.43;;;8.20;99.90;;;9.11;100.00;96196.00;5030460;28;20498;-80
2023/10/26 07:59:51;;;;;;;6.70;4.70;;;8.30;99.90;;;9.17;100.00;96195.09;5030822;28;20453;-80
2023/10/26 08:02:20;;;;;;;7.10;4.57;;;8.30;99.90;;;9.22;100.00;96204.88;5031658;28;21021;-80
2023/10/26 08:04:50;;;;;;;4.93;4.17;;;8.40;99.90;;;9.27;100.00;96207.56;5030856;28;20466;-80
2023/10/26 08:07:20;;;;;;;4.00;3.30;;;8.50;99.90;;;9.32;100.00;96213.72;5028447;28;21257;-80
2023/10/26 08:09:51;;;;;;;5.87;4.20;;;8.50;99.90;;;9.33;100.00;96217.94;5031222;28;20470;-80
2023/10/26 08:12:21;;;;;;;4.47;3.23;;;8.50;99.90;;;9.33;100.00;96212.72;5030238;28;20952;-80
2023/10/26 08:14:55;;;;;;;6.77;2.97;;;8.40;99.90;;;9.38;100.00;96212.81;5035464;28;20458;-80
2023/10/26 08:17:44;;;;;;;4.90;3.23;;;8.50;99.90;;;9.41;100.00;96216.78;5033870;28;20458;-80
2023/10/26 08:20:15;;;;;;;4.30;3.10;;;8.50;99.90;;;9.44;100.00;96230.19;5032924;28;20468;-80
2023/10/26 08:22:44;;;;;;;3.83;2.90;;;8.50;99.90;;;9.49;100.00;96245.97;5033067;28;20479;-80
2023/10/26 08:25:17;;;;;;;4.07;3.43;;;8.60;99.90;;;9.55;100.00;96246.88;5032455;28;20457;-81
2023/10/26 08:27:53;;;;;;;6.20;3.50;;;8.70;99.90;;;9.59;100.00;96246.22;5031937;28;20859;-80
2023/10/26 08:30:24;;;;;;;4.60;3.50;;;8.80;99.90;;;9.66;100.00;96256.53;5034773;28;20465;-80
2023/10/26 08:32:56;;;;;;;16.03;3.30;;;8.90;99.90;;;9.71;100.00;96248.84;5033762;28;20523;-80
2023/10/26 08:35:26;;;;;;;4.93;3.47;;;8.90;99.90;;;9.76;100.00;96245.53;5032142;28;20461;-80
2023/10/26 08:37:56;;;;;;;2.93;2.57;;;8.90;99.90;;;9.81;100.00;96237.84;5030308;28;20493;-80
2023/10/26 08:40:29;;;;;;;9.07;2.70;;;9.00;99.90;;;9.83;100.00;96241.00;5031908;28;20466;-80
2023/10/26 08:43:05;;;;;;;5.27;3.20;;;9.00;99.90;;;9.86;100.00;96241.34;5032089;28;20471;-80
2023/10/26 08:45:38;;;;;;;4.20;3.13;;;9.10;99.90;;;9.92;100.00;96248.28;5034081;28;20832;-80
2023/10/26 08:48:11;;;;;;;3.10;2.40;;;9.10;99.90;;;9.96;100.00;96246.03;5032173;28;20470;-81
2023/10/26 08:50:41;;;;;;;3.10;2.80;;;9.10;99.90;;;10.00;100.00;96240.09;5031249;28;20553;-80
2023/10/26 08:53:10;;;;;;;3.47;2.60;;;9.20;99.90;;;10.02;100.00;96237.28;5030483;28;20497;-80
2023/10/26 08:55:46;;;;;;;7.27;2.50;;;9.20;99.90;;;10.02;100.00;96232.84;5030666;28;20482;-80
2023/10/26 08:58:19;;;;;;;2.87;2.20;;;9.20;99.90;;;10.03;100.00;96233.66;5028236;28;20461;-80
2023/10/26 09:00:53;;;;;;;3.90;2.20;;;9.20;99.90;;;10.05;100.00;96226.38;5031999;28;20469;-80
2023/10/26 09:03:24;;;;;;;2.60;2.40;;;9.20;99.90;;;10.08;100.00;96252.03;5032410;28;21081;-80
2023/10/26 09:05:57;;;;;;;4.57;3.00;;;9.20;99.90;;;10.07;100.00;96264.28;5032441;28;20539;-80
2023/10/26 09:08:28;;;;;;;4.37;3.13;;;9.20;99.90;;;10.08;100.00;96244.19;5034183;28;20953;-80
2023/10/26 09:11:01;;;;;;;3.93;3.10;;;9.30;99.90;;;10.11;100.00;96248.94;5032734;28;20977;-82
2023/10/26 09:13:31;;;;;;;3.10;2.73;;;9.30;99.90;;;10.13;100.00;96242.47;5033219;28;20551;-81
2023/10/26 09:16:01;;;;;;;6.83;2.97;;;9.30;99.90;;;10.17;100.00;96245.44;5031620;28;20516;-82
2023/10/26 09:18:33;;;;;;;7.50;3.50;;;9.30;99.90;;;10.18;100.00;96249.66;5032050;28;20563;-81
2023/10/26 09:21:06;;;;;;;5.47;4.00;;;9.40;99.90;;;10.20;100.00;96252.06;5031223;28;20485;-81
2023/10/26 09:23:39;;;;;;;4.63;3.53;;;9.40;99.90;;;10.25;100.00;96242.50;5030934;28;20466;-80
2023/10/26 09:26:12;;;;;;;4.07;2.73;;;9.40;99.90;;;10.27;100.00;96224.00;5032406;28;20465;-80
2023/10/26 09:28:52;;;;;;;7.03;3.80;;;9.40;99.90;;;10.31;100.00;96218.06;5030812;28;20458;-80
2023/10/26 09:31:23;;;;;;;8.93;3.40;;;9.50;99.90;;;10.37;100.00;96211.94;5030609;28;20902;-80
2023/10/26 09:33:53;;;;;;;7.70;4.20;;;9.50;99.90;;;10.39;100.00;96206.47;5030115;28;20551;-80
2023/10/26 09:36:23;;;;;;;9.77;5.27;;;9.80;99.90;;;10.41;100.00;96212.28;5031444;28;20461;-80
2023/10/26 09:38:53;;;;;;;6.30;4.20;;;9.80;99.90;;;10.46;100.00;96214.97;5031660;28;20825;-81
2023/10/26 09:41:26;;;;;;;7.00;4.17;;;9.80;99.90;;;10.51;100.00;96205.44;5030130;28;20508;-80
2023/10/26 09:43:56;;;;;;;6.20;4.40;;;9.90;99.90;;;10.55;100.00;96206.53;5028897;28;20476;-80
2023/10/26 09:46:26;;;;;;;5.80;4.40;;;9.90;99.90;;;10.60;100.00;96211.06;5032876;28;20464;-80
2023/10/26 09:48:56;;;;;;;8.03;4.93;;;9.90;99.90;;;10.65;100.00;96213.00;5030592;28;20464;-80
2023/10/26 09:51:26;;;;;;;6.50;4.33;;;9.90;99.90;;;10.71;100.00;96206.81;5034697;28;20474;-80
2023/10/26 09:53:57;;;;;;;9.50;4.40;;;9.90;99.90;;;10.71;100.00;96205.00;5033485;28;20496;-80
2023/10/26 09:56:31;;;;;;;14.13;4.70;;;9.90;99.90;;;10.76;100.00;96191.25;5029012;28;20539;-80
2023/10/26 09:59:03;;;;;;;8.83;4.67;;;10.00;99.90;;;10.82;100.00;96192.94;5032273;28;21033;-81
2023/10/26 10:01:37;;;;;;;6.87;4.90;;;10.00;99.90;;;10.92;100.00;96203.56;5029723;28;20462;-80
2023/10/26 10:04:08;;;;;;;9.57;5.47;;;10.20;99.90;;;10.93;100.00;96213.00;5031162;28;20965;-80
2023/10/26 10:06:50;;;;;;;9.13;5.13;;;10.20;99.90;;;10.91;100.00;96215.84;5034208;28;20464;-80
2023/10/26 10:09:22;;;;;;;7.57;4.80;;;10.10;99.90;;;10.93;100.00;96221.63;5032568;28;20460;-80
2023/10/26 10:12:34;;;;;;;6.47;4.93;;;10.20;99.90;;;10.94;100.00;96222.41;5033186;28;20488;-80
2023/10/26 10:15:06;;;;;;;6.77;5.07;;;10.20;99.90;;;10.98;100.00;96223.53;5031881;28;20505;-80
2023/10/26 10:18:07;;;;;;;8.23;5.87;;;10.30;99.90;;;10.98;100.00;96236.63;5032535;28;20576;-80
2023/10/26 10:20:40;;;;;;;9.27;6.30;;;10.30;99.90;;;11.00;100.00;96231.97;5032267;28;20457;-80
2023/10/26 10:23:30;;;;;;;9.77;5.57;;;10.20;99.90;;;10.97;100.00;96220.13;5032524;28;20450;-80
2023/10/26 10:26:02;;;;;;;15.70;7.27;;;10.20;99.90;;;11.03;100.00;96239.34;5032432;28;20456;-80
2023/10/26 10:28:53;;;;;;;14.33;5.67;;;10.20;99.90;;;11.04;100.00;96227.81;5029319;28;20468;-80
2023/10/26 10:31:42;;;;;;;8.67;5.50;;;10.20;99.90;;;11.05;100.00;96224.19;5028586;28;20482;-81
2023/10/26 10:34:16;;;;;;;10.97;5.90;;;10.30;99.90;;;11.10;100.00;96211.22;5029879;28;20490;-80
2023/10/26 10:37:17;;;;;;;9.13;6.87;;;10.30;99.90;;;11.12;100.00;96185.59;5029664;28;20459;-80
2023/10/26 10:40:13;;;;;;;8.20;6.20;;;10.30;99.90;;;11.13;100.00;96178.56;5029754;28;20468;-80